Tapaua, Brazil
Current Conditions -  °F | °C
As of 11:00 AM on Sunday 21 Dec 2014 (Local Time) from SBTF Reporting Station
Clear Clear  
Wind Chill: 91°   Ceiling: Unl
Heat Index: 102°   Visibility: 6mi
Dew Point: 75°   Wind: 12mph
Humidity: 59%   Direction: 330°NNW
Pressure: 29.85"   Gusts: NA
Location:  5.75°S, 63.39°W
Report Text: SBTF 211500Z 33010KT CAVOK 33/24 Q1011
Loading
Personal Weather Stations






























Interactive Weather Map New forecast layout! Learn more

10-Day Weather Forecast

Advertisements
Track Severe Weather on mobile